sensor_id;sensor_type;location;lat;lon;timestamp;P1;durP1;ratioP1;P2;durP2;ratioP2
23586;SDS011;11971;51.148;4.104;2022-12-18T00:02:00;65.95;;;34.83;;
23586;SDS011;11971;51.148;4.104;2022-12-18T00:04:27;63.00;;;35.72;;
23586;SDS011;11971;51.148;4.104;2022-12-18T00:06:55;64.20;;;35.17;;
23586;SDS011;11971;51.148;4.104;2022-12-18T00:09:22;60.53;;;35.38;;
23586;SDS011;11971;51.148;4.104;2022-12-18T00:11:48;66.90;;;36.13;;
23586;SDS011;11971;51.148;4.104;2022-12-18T00:14:15;71.25;;;35.88;;
23586;SDS011;11971;51.148;4.104;2022-12-18T00:16:43;61.88;;;36.42;;
23586;SDS011;11971;51.148;4.104;2022-12-18T00:19:10;58.05;;;32.05;;
23586;SDS011;11971;51.148;4.104;2022-12-18T00:21:37;67.85;;;35.70;;
23586;SDS011;11971;51.148;4.104;2022-12-18T00:24:05;61.92;;;34.55;;
23586;SDS011;11971;51.148;4.104;2022-12-18T00:26:33;63.13;;;36.63;;
23586;SDS011;11971;51.148;4.104;2022-12-18T00:29:00;70.68;;;38.00;;
23586;SDS011;11971;51.148;4.104;2022-12-18T00:31:28;67.72;;;35.95;;
23586;SDS011;11971;51.148;4.104;2022-12-18T00:33:55;65.25;;;33.83;;
23586;SDS011;11971;51.148;4.104;2022-12-18T00:36:23;67.60;;;35.35;;
23586;SDS011;11971;51.148;4.104;2022-12-18T00:38:50;63.83;;;35.55;;
23586;SDS011;11971;51.148;4.104;2022-12-18T00:41:19;67.70;;;35.88;;
23586;SDS011;11971;51.148;4.104;2022-12-18T00:43:59;67.97;;;36.97;;
23586;SDS011;11971;51.148;4.104;2022-12-18T00:46:26;57.47;;;34.67;;
23586;SDS011;11971;51.148;4.104;2022-12-18T00:48:53;63.38;;;35.80;;
23586;SDS011;11971;51.148;4.104;2022-12-18T00:51:19;63.50;;;36.08;;
23586;SDS011;11971;51.148;4.104;2022-12-18T00:53:46;72.40;;;37.97;;
23586;SDS011;11971;51.148;4.104;2022-12-18T00:56:12;57.50;;;35.50;;
23586;SDS011;11971;51.148;4.104;2022-12-18T00:58:40;67.40;;;36.65;;
23586;SDS011;11971;51.148;4.104;2022-12-18T01:01:07;64.80;;;35.63;;
23586;SDS011;11971;51.148;4.104;2022-12-18T01:03:35;61.33;;;36.08;;
23586;SDS011;11971;51.148;4.104;2022-12-18T01:06:05;62.95;;;34.65;;
23586;SDS011;11971;51.148;4.104;2022-12-18T01:08:32;64.07;;;36.45;;
23586;SDS011;11971;51.148;4.104;2022-12-18T01:10:59;57.78;;;34.88;;
23586;SDS011;11971;51.148;4.104;2022-12-18T01:13:25;64.88;;;36.60;;
23586;SDS011;11971;51.148;4.104;2022-12-18T01:15:53;65.80;;;34.60;;
23586;SDS011;11971;51.148;4.104;2022-12-18T01:18:20;69.45;;;35.63;;
23586;SDS011;11971;51.148;4.104;2022-12-18T01:20:46;63.50;;;36.22;;
23586;SDS011;11971;51.148;4.104;2022-12-18T01:23:13;58.72;;;33.30;;
23586;SDS011;11971;51.148;4.104;2022-12-18T01:25:39;65.88;;;37.15;;
23586;SDS011;11971;51.148;4.104;2022-12-18T01:28:06;62.38;;;35.83;;
23586;SDS011;11971;51.148;4.104;2022-12-18T01:30:33;58.70;;;32.85;;
23586;SDS011;11971;51.148;4.104;2022-12-18T01:33:01;56.80;;;34.10;;
23586;SDS011;11971;51.148;4.104;2022-12-18T01:35:27;56.92;;;35.10;;
23586;SDS011;11971;51.148;4.104;2022-12-18T01:37:54;62.63;;;35.55;;
23586;SDS011;11971;51.148;4.104;2022-12-18T01:40:20;62.78;;;35.70;;
23586;SDS011;11971;51.148;4.104;2022-12-18T01:42:49;65.88;;;35.17;;
23586;SDS011;11971;51.148;4.104;2022-12-18T01:45:24;61.40;;;35.33;;
23586;SDS011;11971;51.148;4.104;2022-12-18T01:47:52;73.75;;;37.03;;
23586;SDS011;11971;51.148;4.104;2022-12-18T01:50:22;68.25;;;36.80;;
23586;SDS011;11971;51.148;4.104;2022-12-18T01:52:52;67.32;;;36.08;;
23586;SDS011;11971;51.148;4.104;2022-12-18T01:55:22;58.97;;;34.20;;
23586;SDS011;11971;51.148;4.104;2022-12-18T01:57:50;64.20;;;37.38;;
23586;SDS011;11971;51.148;4.104;2022-12-18T02:00:19;60.33;;;34.92;;
23586;SDS011;11971;51.148;4.104;2022-12-18T02:02:47;59.58;;;34.83;;
23586;SDS011;11971;51.148;4.104;2022-12-18T02:05:15;67.03;;;36.78;;
23586;SDS011;11971;51.148;4.104;2022-12-18T02:07:46;57.92;;;35.17;;
23586;SDS011;11971;51.148;4.104;2022-12-18T02:10:19;61.42;;;33.45;;
23586;SDS011;11971;51.148;4.104;2022-12-18T02:12:48;60.20;;;34.92;;
23586;SDS011;11971;51.148;4.104;2022-12-18T02:15:18;60.92;;;32.10;;
23586;SDS011;11971;51.148;4.104;2022-12-18T02:17:52;64.53;;;35.65;;
23586;SDS011;11971;51.148;4.104;2022-12-18T02:20:21;70.93;;;36.85;;
23586;SDS011;11971;51.148;4.104;2022-12-18T02:23:06;58.83;;;34.72;;
23586;SDS011;11971;51.148;4.104;2022-12-18T02:25:43;59.42;;;34.60;;
23586;SDS011;11971;51.148;4.104;2022-12-18T02:28:41;63.28;;;36.20;;
23586;SDS011;11971;51.148;4.104;2022-12-18T02:31:11;58.03;;;34.60;;
23586;SDS011;11971;51.148;4.104;2022-12-18T02:33:39;65.72;;;34.08;;
23586;SDS011;11971;51.148;4.104;2022-12-18T02:36:06;65.82;;;36.40;;
23586;SDS011;11971;51.148;4.104;2022-12-18T02:38:34;60.88;;;35.15;;
23586;SDS011;11971;51.148;4.104;2022-12-18T02:41:01;63.75;;;35.65;;
23586;SDS011;11971;51.148;4.104;2022-12-18T02:43:29;70.13;;;37.15;;
23586;SDS011;11971;51.148;4.104;2022-12-18T02:45:57;61.22;;;35.20;;
23586;SDS011;11971;51.148;4.104;2022-12-18T02:48:26;54.83;;;33.45;;
23586;SDS011;11971;51.148;4.104;2022-12-18T02:50:57;60.67;;;35.35;;
23586;SDS011;11971;51.148;4.104;2022-12-18T02:53:27;54.92;;;33.40;;
23586;SDS011;11971;51.148;4.104;2022-12-18T02:56:01;74.03;;;37.40;;
23586;SDS011;11971;51.148;4.104;2022-12-18T02:58:32;58.53;;;33.88;;
23586;SDS011;11971;51.148;4.104;2022-12-18T03:01:03;67.63;;;36.67;;
23586;SDS011;11971;51.148;4.104;2022-12-18T03:03:35;61.80;;;34.25;;
23586;SDS011;11971;51.148;4.104;2022-12-18T03:06:06;57.83;;;33.85;;
23586;SDS011;11971;51.148;4.104;2022-12-18T03:08:52;62.40;;;35.28;;
23586;SDS011;11971;51.148;4.104;2022-12-18T03:11:25;71.47;;;35.33;;
23586;SDS011;11971;51.148;4.104;2022-12-18T03:14:06;77.30;;;37.45;;
23586;SDS011;11971;51.148;4.104;2022-12-18T03:16:35;64.78;;;36.08;;
23586;SDS011;11971;51.148;4.104;2022-12-18T03:19:03;69.72;;;35.65;;
23586;SDS011;11971;51.148;4.104;2022-12-18T03:21:32;61.05;;;36.22;;
23586;SDS011;11971;51.148;4.104;2022-12-18T03:24:00;58.53;;;34.72;;
23586;SDS011;11971;51.148;4.104;2022-12-18T03:26:29;66.15;;;36.05;;
23586;SDS011;11971;51.148;4.104;2022-12-18T03:28:57;62.33;;;36.35;;
23586;SDS011;11971;51.148;4.104;2022-12-18T03:31:26;59.53;;;34.30;;
23586;SDS011;11971;51.148;4.104;2022-12-18T03:34:01;59.67;;;35.47;;
23586;SDS011;11971;51.148;4.104;2022-12-18T03:36:30;53.08;;;33.08;;
23586;SDS011;11971;51.148;4.104;2022-12-18T03:38:58;64.57;;;35.13;;
23586;SDS011;11971;51.148;4.104;2022-12-18T03:41:26;65.10;;;34.67;;
23586;SDS011;11971;51.148;4.104;2022-12-18T03:43:57;57.47;;;33.97;;
23586;SDS011;11971;51.148;4.104;2022-12-18T03:46:29;64.85;;;32.90;;
23586;SDS011;11971;51.148;4.104;2022-12-18T03:49:01;62.65;;;34.80;;
23586;SDS011;11971;51.148;4.104;2022-12-18T03:51:35;54.08;;;33.58;;
23586;SDS011;11971;51.148;4.104;2022-12-18T03:54:04;55.45;;;33.20;;
23586;SDS011;11971;51.148;4.104;2022-12-18T03:56:34;56.95;;;32.95;;
23586;SDS011;11971;51.148;4.104;2022-12-18T03:59:06;57.47;;;34.15;;
23586;SDS011;11971;51.148;4.104;2022-12-18T04:01:34;56.33;;;33.88;;
23586;SDS011;11971;51.148;4.104;2022-12-18T04:04:03;52.28;;;32.03;;
23586;SDS011;11971;51.148;4.104;2022-12-18T04:06:30;51.38;;;31.85;;
23586;SDS011;11971;51.148;4.104;2022-12-18T04:08:58;60.65;;;33.67;;
23586;SDS011;11971;51.148;4.104;2022-12-18T04:11:24;52.72;;;32.90;;
23586;SDS011;11971;51.148;4.104;2022-12-18T04:13:53;59.45;;;33.67;;
23586;SDS011;11971;51.148;4.104;2022-12-18T04:16:21;59.38;;;32.72;;
23586;SDS011;11971;51.148;4.104;2022-12-18T04:18:48;49.08;;;33.42;;
23586;SDS011;11971;51.148;4.104;2022-12-18T04:21:16;58.83;;;34.70;;
23586;SDS011;11971;51.148;4.104;2022-12-18T04:23:42;51.03;;;33.17;;
23586;SDS011;11971;51.148;4.104;2022-12-18T04:26:09;56.55;;;33.08;;
23586;SDS011;11971;51.148;4.104;2022-12-18T04:28:35;61.60;;;33.20;;
23586;SDS011;11971;51.148;4.104;2022-12-18T04:31:02;53.65;;;32.85;;
23586;SDS011;11971;51.148;4.104;2022-12-18T04:33:29;53.65;;;33.60;;
23586;SDS011;11971;51.148;4.104;2022-12-18T04:35:56;59.30;;;34.20;;
23586;SDS011;11971;51.148;4.104;2022-12-18T04:38:24;46.95;;;31.83;;
23586;SDS011;11971;51.148;4.104;2022-12-18T04:40:50;59.45;;;33.67;;
23586;SDS011;11971;51.148;4.104;2022-12-18T04:43:17;63.10;;;34.47;;
23586;SDS011;11971;51.148;4.104;2022-12-18T04:45:44;49.75;;;31.95;;
23586;SDS011;11971;51.148;4.104;2022-12-18T04:48:10;60.35;;;33.65;;
23586;SDS011;11971;51.148;4.104;2022-12-18T04:50:37;48.03;;;31.50;;
23586;SDS011;11971;51.148;4.104;2022-12-18T04:53:03;55.22;;;32.28;;
23586;SDS011;11971;51.148;4.104;2022-12-18T04:55:31;51.50;;;30.95;;
23586;SDS011;11971;51.148;4.104;2022-12-18T04:57:58;52.97;;;32.08;;
23586;SDS011;11971;51.148;4.104;2022-12-18T05:00:25;54.78;;;33.13;;
23586;SDS011;11971;51.148;4.104;2022-12-18T05:02:51;53.03;;;33.05;;
23586;SDS011;11971;51.148;4.104;2022-12-18T05:05:18;51.58;;;31.65;;
23586;SDS011;11971;51.148;4.104;2022-12-18T05:07:45;52.65;;;33.17;;
23586;SDS011;11971;51.148;4.104;2022-12-18T05:10:11;55.08;;;32.70;;
23586;SDS011;11971;51.148;4.104;2022-12-18T05:12:40;52.72;;;32.78;;
23586;SDS011;11971;51.148;4.104;2022-12-18T05:15:21;57.00;;;33.25;;
23586;SDS011;11971;51.148;4.104;2022-12-18T05:17:49;48.45;;;31.95;;
23586;SDS011;11971;51.148;4.104;2022-12-18T05:20:15;56.10;;;32.55;;
23586;SDS011;11971;51.148;4.104;2022-12-18T05:22:43;57.07;;;32.60;;
23586;SDS011;11971;51.148;4.104;2022-12-18T05:25:09;55.50;;;32.38;;
23586;SDS011;11971;51.148;4.104;2022-12-18T05:27:36;58.53;;;32.40;;
23586;SDS011;11971;51.148;4.104;2022-12-18T05:30:05;55.63;;;33.10;;
23586;SDS011;11971;51.148;4.104;2022-12-18T05:32:34;54.97;;;33.38;;
23586;SDS011;11971;51.148;4.104;2022-12-18T05:35:01;56.42;;;33.25;;
23586;SDS011;11971;51.148;4.104;2022-12-18T05:37:27;49.50;;;31.25;;
23586;SDS011;11971;51.148;4.104;2022-12-18T05:39:54;57.13;;;32.50;;
23586;SDS011;11971;51.148;4.104;2022-12-18T05:42:21;47.17;;;31.23;;
23586;SDS011;11971;51.148;4.104;2022-12-18T05:44:47;54.08;;;32.90;;
23586;SDS011;11971;51.148;4.104;2022-12-18T05:47:18;53.42;;;33.33;;
23586;SDS011;11971;51.148;4.104;2022-12-18T05:49:44;53.40;;;32.70;;
23586;SDS011;11971;51.148;4.104;2022-12-18T05:52:12;64.90;;;33.67;;
23586;SDS011;11971;51.148;4.104;2022-12-18T05:54:38;59.67;;;33.33;;
23586;SDS011;11971;51.148;4.104;2022-12-18T05:57:05;54.70;;;32.42;;
23586;SDS011;11971;51.148;4.104;2022-12-18T05:59:31;50.17;;;32.20;;
23586;SDS011;11971;51.148;4.104;2022-12-18T06:01:58;53.50;;;32.85;;
23586;SDS011;11971;51.148;4.104;2022-12-18T06:04:27;59.83;;;32.95;;
23586;SDS011;11971;51.148;4.104;2022-12-18T06:06:54;51.72;;;32.10;;
23586;SDS011;11971;51.148;4.104;2022-12-18T06:09:21;50.55;;;31.40;;
23586;SDS011;11971;51.148;4.104;2022-12-18T06:11:47;53.90;;;32.40;;
23586;SDS011;11971;51.148;4.104;2022-12-18T06:14:14;53.95;;;31.38;;
23586;SDS011;11971;51.148;4.104;2022-12-18T06:16:42;52.22;;;32.78;;
23586;SDS011;11971;51.148;4.104;2022-12-18T06:19:13;55.00;;;32.25;;
23586;SDS011;11971;51.148;4.104;2022-12-18T06:21:42;58.00;;;32.92;;
23586;SDS011;11971;51.148;4.104;2022-12-18T06:24:09;57.60;;;32.97;;
23586;SDS011;11971;51.148;4.104;2022-12-18T06:26:36;49.33;;;31.33;;
23586;SDS011;11971;51.148;4.104;2022-12-18T06:29:03;52.88;;;31.75;;
23586;SDS011;11971;51.148;4.104;2022-12-18T06:31:30;51.05;;;31.38;;
23586;SDS011;11971;51.148;4.104;2022-12-18T06:33:56;49.92;;;31.83;;
23586;SDS011;11971;51.148;4.104;2022-12-18T06:36:23;56.75;;;32.50;;
23586;SDS011;11971;51.148;4.104;2022-12-18T06:38:51;53.55;;;31.80;;
23586;SDS011;11971;51.148;4.104;2022-12-18T06:41:18;48.50;;;31.58;;
23586;SDS011;11971;51.148;4.104;2022-12-18T06:43:46;52.22;;;32.40;;
23586;SDS011;11971;51.148;4.104;2022-12-18T06:46:12;54.60;;;32.22;;
23586;SDS011;11971;51.148;4.104;2022-12-18T06:48:39;48.63;;;30.83;;
23586;SDS011;11971;51.148;4.104;2022-12-18T06:51:05;52.17;;;32.60;;
23586;SDS011;11971;51.148;4.104;2022-12-18T06:53:32;46.95;;;30.50;;
23586;SDS011;11971;51.148;4.104;2022-12-18T06:56:01;54.17;;;31.25;;
23586;SDS011;11971;51.148;4.104;2022-12-18T06:58:28;49.78;;;31.98;;
23586;SDS011;11971;51.148;4.104;2022-12-18T07:00:59;55.55;;;32.72;;
23586;SDS011;11971;51.148;4.104;2022-12-18T07:03:26;54.47;;;32.70;;
23586;SDS011;11971;51.148;4.104;2022-12-18T07:05:52;53.45;;;32.63;;
23586;SDS011;11971;51.148;4.104;2022-12-18T07:08:19;45.45;;;30.45;;
23586;SDS011;11971;51.148;4.104;2022-12-18T07:10:46;51.67;;;30.20;;
23586;SDS011;11971;51.148;4.104;2022-12-18T07:13:15;54.33;;;32.70;;
23586;SDS011;11971;51.148;4.104;2022-12-18T07:15:42;49.33;;;31.58;;
23586;SDS011;11971;51.148;4.104;2022-12-18T07:18:09;50.85;;;31.85;;
23586;SDS011;11971;51.148;4.104;2022-12-18T07:20:35;55.55;;;32.47;;
23586;SDS011;11971;51.148;4.104;2022-12-18T07:23:02;51.63;;;31.45;;
23586;SDS011;11971;51.148;4.104;2022-12-18T07:25:30;47.33;;;30.95;;
23586;SDS011;11971;51.148;4.104;2022-12-18T07:27:56;61.13;;;32.38;;
23586;SDS011;11971;51.148;4.104;2022-12-18T07:30:24;52.17;;;31.85;;
23586;SDS011;11971;51.148;4.104;2022-12-18T07:32:51;63.08;;;31.63;;
23586;SDS011;11971;51.148;4.104;2022-12-18T07:35:18;51.83;;;31.63;;
23586;SDS011;11971;51.148;4.104;2022-12-18T07:37:44;56.97;;;32.47;;
23586;SDS011;11971;51.148;4.104;2022-12-18T07:40:11;52.15;;;31.77;;
23586;SDS011;11971;51.148;4.104;2022-12-18T07:42:38;49.08;;;31.08;;
23586;SDS011;11971;51.148;4.104;2022-12-18T07:45:05;53.47;;;32.08;;
23586;SDS011;11971;51.148;4.104;2022-12-18T07:47:35;52.67;;;31.75;;
23586;SDS011;11971;51.148;4.104;2022-12-18T07:50:02;50.35;;;31.45;;
23586;SDS011;11971;51.148;4.104;2022-12-18T07:52:28;47.50;;;30.60;;
23586;SDS011;11971;51.148;4.104;2022-12-18T07:54:55;47.50;;;29.42;;
23586;SDS011;11971;51.148;4.104;2022-12-18T07:57:22;53.25;;;30.98;;
23586;SDS011;11971;51.148;4.104;2022-12-18T07:59:48;52.35;;;31.33;;
23586;SDS011;11971;51.148;4.104;2022-12-18T08:02:15;49.47;;;30.98;;
23586;SDS011;11971;51.148;4.104;2022-12-18T08:04:43;49.97;;;31.35;;
23586;SDS011;11971;51.148;4.104;2022-12-18T08:07:09;55.75;;;31.58;;
23586;SDS011;11971;51.148;4.104;2022-12-18T08:09:36;66.60;;;31.58;;
23586;SDS011;11971;51.148;4.104;2022-12-18T08:12:03;49.15;;;30.83;;
23586;SDS011;11971;51.148;4.104;2022-12-18T08:14:30;53.08;;;31.90;;
23586;SDS011;11971;51.148;4.104;2022-12-18T08:16:56;46.03;;;30.08;;
23586;SDS011;11971;51.148;4.104;2022-12-18T08:19:23;51.25;;;30.63;;
23586;SDS011;11971;51.148;4.104;2022-12-18T08:21:51;47.92;;;30.65;;
23586;SDS011;11971;51.148;4.104;2022-12-18T08:24:18;50.20;;;31.08;;
23586;SDS011;11971;51.148;4.104;2022-12-18T08:26:44;48.92;;;30.40;;
23586;SDS011;11971;51.148;4.104;2022-12-18T08:29:11;55.63;;;30.75;;
23586;SDS011;11971;51.148;4.104;2022-12-18T08:31:38;52.33;;;31.23;;
23586;SDS011;11971;51.148;4.104;2022-12-18T08:34:04;52.38;;;31.00;;
23586;SDS011;11971;51.148;4.104;2022-12-18T08:36:31;54.97;;;31.77;;
23586;SDS011;11971;51.148;4.104;2022-12-18T08:38:59;54.67;;;31.73;;
23586;SDS011;11971;51.148;4.104;2022-12-18T08:41:25;51.85;;;31.77;;
23586;SDS011;11971;51.148;4.104;2022-12-18T08:43:52;49.72;;;30.58;;
23586;SDS011;11971;51.148;4.104;2022-12-18T08:46:42;48.60;;;30.92;;
23586;SDS011;11971;51.148;4.104;2022-12-18T08:49:09;53.88;;;31.42;;
23586;SDS011;11971;51.148;4.104;2022-12-18T08:51:36;51.40;;;31.70;;
23586;SDS011;11971;51.148;4.104;2022-12-18T08:54:05;55.40;;;32.25;;
23586;SDS011;11971;51.148;4.104;2022-12-18T08:56:32;54.42;;;33.45;;
23586;SDS011;11971;51.148;4.104;2022-12-18T08:58:59;49.08;;;30.38;;
23586;SDS011;11971;51.148;4.104;2022-12-18T09:01:25;55.85;;;31.50;;
23586;SDS011;11971;51.148;4.104;2022-12-18T09:03:52;51.28;;;31.00;;
23586;SDS011;11971;51.148;4.104;2022-12-18T09:06:19;55.25;;;32.63;;
23586;SDS011;11971;51.148;4.104;2022-12-18T09:08:47;57.97;;;31.73;;
23586;SDS011;11971;51.148;4.104;2022-12-18T09:11:18;60.05;;;33.42;;
23586;SDS011;11971;51.148;4.104;2022-12-18T09:13:46;50.88;;;30.73;;
23586;SDS011;11971;51.148;4.104;2022-12-18T09:16:12;59.40;;;33.53;;
23586;SDS011;11971;51.148;4.104;2022-12-18T09:18:39;58.67;;;32.22;;
23586;SDS011;11971;51.148;4.104;2022-12-18T09:21:10;54.42;;;32.13;;
23586;SDS011;11971;51.148;4.104;2022-12-18T09:23:37;52.30;;;31.48;;
23586;SDS011;11971;51.148;4.104;2022-12-18T09:26:05;51.20;;;31.33;;
23586;SDS011;11971;51.148;4.104;2022-12-18T09:28:33;51.22;;;31.80;;
23586;SDS011;11971;51.148;4.104;2022-12-18T09:31:03;53.63;;;32.85;;
23586;SDS011;11971;51.148;4.104;2022-12-18T09:33:30;56.00;;;33.00;;
23586;SDS011;11971;51.148;4.104;2022-12-18T09:35:57;57.28;;;32.90;;
23586;SDS011;11971;51.148;4.104;2022-12-18T09:38:57;61.30;;;34.35;;
23586;SDS011;11971;51.148;4.104;2022-12-18T09:41:35;55.85;;;33.22;;
23586;SDS011;11971;51.148;4.104;2022-12-18T09:44:11;63.88;;;34.97;;
23586;SDS011;11971;51.148;4.104;2022-12-18T09:46:43;57.35;;;33.58;;
23586;SDS011;11971;51.148;4.104;2022-12-18T09:49:12;59.25;;;33.95;;
23586;SDS011;11971;51.148;4.104;2022-12-18T09:51:42;60.35;;;33.78;;
23586;SDS011;11971;51.148;4.104;2022-12-18T09:54:14;57.20;;;33.25;;
23586;SDS011;11971;51.148;4.104;2022-12-18T09:56:43;60.80;;;34.45;;
23586;SDS011;11971;51.148;4.104;2022-12-18T09:59:14;56.35;;;33.42;;
23586;SDS011;11971;51.148;4.104;2022-12-18T10:01:45;52.28;;;33.22;;
23586;SDS011;11971;51.148;4.104;2022-12-18T10:04:12;57.95;;;33.95;;
23586;SDS011;11971;51.148;4.104;2022-12-18T10:06:39;64.13;;;35.28;;
23586;SDS011;11971;51.148;4.104;2022-12-18T10:09:12;59.25;;;33.50;;
23586;SDS011;11971;51.148;4.104;2022-12-18T10:11:48;58.22;;;33.38;;
23586;SDS011;11971;51.148;4.104;2022-12-18T10:14:19;55.13;;;32.42;;
23586;SDS011;11971;51.148;4.104;2022-12-18T10:16:52;58.13;;;33.25;;
23586;SDS011;11971;51.148;4.104;2022-12-18T10:19:29;64.10;;;34.58;;
23586;SDS011;11971;51.148;4.104;2022-12-18T10:22:02;59.55;;;33.88;;
23586;SDS011;11971;51.148;4.104;2022-12-18T10:24:40;62.65;;;33.97;;
23586;SDS011;11971;51.148;4.104;2022-12-18T10:27:11;60.63;;;33.88;;
23586;SDS011;11971;51.148;4.104;2022-12-18T10:29:41;60.33;;;34.53;;
23586;SDS011;11971;51.148;4.104;2022-12-18T10:32:09;60.83;;;33.63;;
23586;SDS011;11971;51.148;4.104;2022-12-18T10:34:40;62.08;;;34.28;;
23586;SDS011;11971;51.148;4.104;2022-12-18T10:37:09;62.72;;;34.10;;
23586;SDS011;11971;51.148;4.104;2022-12-18T10:39:40;70.45;;;36.13;;
23586;SDS011;11971;51.148;4.104;2022-12-18T10:42:10;62.55;;;34.70;;
23586;SDS011;11971;51.148;4.104;2022-12-18T10:44:38;62.28;;;33.63;;
23586;SDS011;11971;51.148;4.104;2022-12-18T10:47:06;61.95;;;35.13;;
23586;SDS011;11971;51.148;4.104;2022-12-18T10:49:37;64.90;;;35.75;;
23586;SDS011;11971;51.148;4.104;2022-12-18T10:52:14;66.68;;;35.75;;
23586;SDS011;11971;51.148;4.104;2022-12-18T10:54:47;69.15;;;35.92;;
23586;SDS011;11971;51.148;4.104;2022-12-18T10:57:18;62.85;;;33.55;;
23586;SDS011;11971;51.148;4.104;2022-12-18T10:59:59;62.65;;;34.60;;
23586;SDS011;11971;51.148;4.104;2022-12-18T11:02:45;63.75;;;34.92;;
23586;SDS011;11971;51.148;4.104;2022-12-18T11:05:22;59.08;;;33.58;;
23586;SDS011;11971;51.148;4.104;2022-12-18T11:07:50;59.30;;;34.30;;
23586;SDS011;11971;51.148;4.104;2022-12-18T11:10:21;63.78;;;34.30;;
23586;SDS011;11971;51.148;4.104;2022-12-18T11:12:49;61.63;;;33.72;;
23586;SDS011;11971;51.148;4.104;2022-12-18T11:15:16;60.88;;;34.08;;
23586;SDS011;11971;51.148;4.104;2022-12-18T11:17:46;59.45;;;33.80;;
23586;SDS011;11971;51.148;4.104;2022-12-18T11:20:26;59.97;;;33.78;;
23586;SDS011;11971;51.148;4.104;2022-12-18T11:22:57;61.53;;;34.08;;
23586;SDS011;11971;51.148;4.104;2022-12-18T11:25:29;60.90;;;33.78;;
23586;SDS011;11971;51.148;4.104;2022-12-18T11:27:56;58.30;;;32.75;;
23586;SDS011;11971;51.148;4.104;2022-12-18T11:30:25;60.65;;;34.40;;
23586;SDS011;11971;51.148;4.104;2022-12-18T11:32:54;57.90;;;33.05;;
23586;SDS011;11971;51.148;4.104;2022-12-18T11:35:23;61.97;;;34.72;;
23586;SDS011;11971;51.148;4.104;2022-12-18T11:37:59;59.63;;;33.90;;
23586;SDS011;11971;51.148;4.104;2022-12-18T11:40:33;58.80;;;33.42;;
23586;SDS011;11971;51.148;4.104;2022-12-18T11:43:04;59.42;;;34.22;;
23586;SDS011;11971;51.148;4.104;2022-12-18T11:45:35;65.45;;;35.50;;
23586;SDS011;11971;51.148;4.104;2022-12-18T11:48:09;63.45;;;34.35;;
23586;SDS011;11971;51.148;4.104;2022-12-18T11:50:48;60.00;;;34.10;;
23586;SDS011;11971;51.148;4.104;2022-12-18T11:53:16;59.20;;;33.53;;
23586;SDS011;11971;51.148;4.104;2022-12-18T11:55:49;61.47;;;34.53;;
23586;SDS011;11971;51.148;4.104;2022-12-18T11:58:24;64.50;;;34.92;;
23586;SDS011;11971;51.148;4.104;2022-12-18T12:01:00;62.47;;;34.30;;
23586;SDS011;11971;51.148;4.104;2022-12-18T12:03:46;73.63;;;34.72;;
23586;SDS011;11971;51.148;4.104;2022-12-18T12:06:29;66.20;;;34.80;;
23586;SDS011;11971;51.148;4.104;2022-12-18T12:09:04;60.10;;;33.40;;
23586;SDS011;11971;51.148;4.104;2022-12-18T12:11:41;62.88;;;35.15;;
23586;SDS011;11971;51.148;4.104;2022-12-18T12:14:16;64.75;;;35.55;;
23586;SDS011;11971;51.148;4.104;2022-12-18T12:16:57;63.72;;;34.38;;
23586;SDS011;11971;51.148;4.104;2022-12-18T12:19:36;63.50;;;34.63;;
23586;SDS011;11971;51.148;4.104;2022-12-18T12:22:07;66.45;;;34.75;;
23586;SDS011;11971;51.148;4.104;2022-12-18T12:24:41;62.85;;;34.88;;
23586;SDS011;11971;51.148;4.104;2022-12-18T12:27:19;67.97;;;35.20;;
23586;SDS011;11971;51.148;4.104;2022-12-18T12:29:54;66.40;;;35.30;;
23586;SDS011;11971;51.148;4.104;2022-12-18T12:32:30;65.00;;;34.63;;
23586;SDS011;11971;51.148;4.104;2022-12-18T12:35:08;66.88;;;35.53;;
23586;SDS011;11971;51.148;4.104;2022-12-18T12:37:43;62.33;;;34.83;;
23586;SDS011;11971;51.148;4.104;2022-12-18T12:40:16;68.15;;;35.85;;
23586;SDS011;11971;51.148;4.104;2022-12-18T12:42:46;67.70;;;37.53;;
23586;SDS011;11971;51.148;4.104;2022-12-18T12:45:33;63.67;;;34.40;;
23586;SDS011;11971;51.148;4.104;2022-12-18T12:48:02;70.28;;;36.63;;
23586;SDS011;11971;51.148;4.104;2022-12-18T12:50:58;66.13;;;35.80;;
23586;SDS011;11971;51.148;4.104;2022-12-18T12:53:26;69.30;;;36.15;;
23586;SDS011;11971;51.148;4.104;2022-12-18T12:55:55;66.38;;;36.03;;
23586;SDS011;11971;51.148;4.104;2022-12-18T12:58:26;70.38;;;37.35;;
23586;SDS011;11971;51.148;4.104;2022-12-18T13:01:00;66.47;;;35.97;;
23586;SDS011;11971;51.148;4.104;2022-12-18T13:03:34;71.15;;;36.63;;
23586;SDS011;11971;51.148;4.104;2022-12-18T13:06:08;65.22;;;36.05;;
23586;SDS011;11971;51.148;4.104;2022-12-18T13:08:51;67.97;;;35.80;;
23586;SDS011;11971;51.148;4.104;2022-12-18T13:11:28;67.38;;;34.97;;
23586;SDS011;11971;51.148;4.104;2022-12-18T13:14:31;65.22;;;35.55;;
23586;SDS011;11971;51.148;4.104;2022-12-18T13:20:11;65.00;;;35.83;;
23586;SDS011;11971;51.148;4.104;2022-12-18T13:22:39;65.82;;;35.97;;
23586;SDS011;11971;51.148;4.104;2022-12-18T13:28:01;74.30;;;38.22;;
23586;SDS011;11971;51.148;4.104;2022-12-18T13:36:28;72.97;;;37.95;;
23586;SDS011;11971;51.148;4.104;2022-12-18T13:39:11;72.10;;;37.58;;
23586;SDS011;11971;51.148;4.104;2022-12-18T13:41:54;77.22;;;37.38;;
23586;SDS011;11971;51.148;4.104;2022-12-18T13:45:37;67.25;;;36.40;;
23586;SDS011;11971;51.148;4.104;2022-12-18T13:48:10;68.50;;;36.25;;
23586;SDS011;11971;51.148;4.104;2022-12-18T13:50:47;67.95;;;36.75;;
23586;SDS011;11971;51.148;4.104;2022-12-18T13:53:16;69.25;;;36.88;;
23586;SDS011;11971;51.148;4.104;2022-12-18T13:55:46;72.03;;;37.25;;
23586;SDS011;11971;51.148;4.104;2022-12-18T13:58:12;75.20;;;36.53;;
23586;SDS011;11971;51.148;4.104;2022-12-18T14:00:41;72.45;;;37.60;;
23586;SDS011;11971;51.148;4.104;2022-12-18T14:05:44;69.22;;;37.03;;
23586;SDS011;11971;51.148;4.104;2022-12-18T14:08:12;72.37;;;36.63;;
23586;SDS011;11971;51.148;4.104;2022-12-18T14:10:41;69.53;;;36.38;;
23586;SDS011;11971;51.148;4.104;2022-12-18T14:13:08;67.43;;;36.88;;
23586;SDS011;11971;51.148;4.104;2022-12-18T14:15:38;69.20;;;37.00;;
23586;SDS011;11971;51.148;4.104;2022-12-18T14:18:12;68.32;;;36.50;;
23586;SDS011;11971;51.148;4.104;2022-12-18T14:20:47;70.50;;;38.15;;
23586;SDS011;11971;51.148;4.104;2022-12-18T14:23:25;71.80;;;37.72;;
23586;SDS011;11971;51.148;4.104;2022-12-18T14:25:53;72.47;;;37.60;;
23586;SDS011;11971;51.148;4.104;2022-12-18T14:28:20;70.07;;;37.50;;
23586;SDS011;11971;51.148;4.104;2022-12-18T14:30:47;69.10;;;37.58;;
23586;SDS011;11971;51.148;4.104;2022-12-18T14:33:15;74.85;;;39.65;;
23586;SDS011;11971;51.148;4.104;2022-12-18T14:35:54;73.03;;;37.75;;
23586;SDS011;11971;51.148;4.104;2022-12-18T14:38:23;75.78;;;38.85;;
23586;SDS011;11971;51.148;4.104;2022-12-18T14:40:52;70.50;;;37.67;;
23586;SDS011;11971;51.148;4.104;2022-12-18T14:43:22;72.35;;;38.03;;
23586;SDS011;11971;51.148;4.104;2022-12-18T14:45:49;70.13;;;37.30;;
23586;SDS011;11971;51.148;4.104;2022-12-18T14:48:17;72.47;;;37.67;;
23586;SDS011;11971;51.148;4.104;2022-12-18T14:50:44;73.10;;;37.22;;
23586;SDS011;11971;51.148;4.104;2022-12-18T14:53:20;77.03;;;38.42;;